Terminal Aerodrome Forecast
Issued by NWS

Home | Current Version | Previous Version | Text Only | Print | Product List | Glossary On
Versions: 1 2 3 4 5 6 7 8 9 10 11 12 13 14 15 16 17 18 19 20 21 22
171
FTUS43 KTOP 270809 AAA
TAFMHK
TAF AMD
KMHK 270809Z 2708/2806 04005KT P6SM SCT006 BKN020
     FM271400 02010KT P6SM BKN015
     FM271700 02010KT P6SM BKN035
     FM280100 03006KT P6SM SCT050=

USA.gov is the U.S. government's official web portal to all federal, state and local government web resources and services.